Milan, MI (48160)

10:39 AM EDT on August 04, 2015 (GMT -0400)
Covington Drive | | Change Station
CLOSE
Current Station
Personal Weather Station
Location: Saline, MI
Elevation: 810 ft
Nearby Weather Stations

Elev 810 ft 42.15 °N, 83.74 °W | Updated 1 minute ago

Clear
Clear
73.6 °F
Feels Like 77 °F
N
2.2
Wind Variable Wind from SW
Gusts 4.5 mph

Today
High -- | Low -- °F
--% Chance of Precip.
Yesterday
High -- | Low -- °F
Precip. -- in
6:30 AM 8:50 PM
Waning Gibbous, 77% visible
Pressure 29.92 in
Visibility 10.0 miles
Clouds Clear
Heat Index 77 °F
Dew Point 58 °F
Humidity 59%
Rainfall 0.00 in
Snow Depth Not available.
UV 4 out of 12
Pollen 7.60 out of 12
Air Quality Not available.
Flu Activity Not available.
METAR KARB 041353Z 26005KT 10SM CLR 22/14 A2993 RMK AO2 SLP132 T02170144

More Conditions Fewer Conditions

Pressure 29.92 in
Visibility 10.0 miles
Clouds Clear
Heat Index 77 °F
Dew Point 58 °F
Humidity 59%
Rainfall 0.00 in
Snow Depth Not available.
UV 4 out of 12
Pollen 7.60 out of 12
Air Quality Not available.
Flu Activity Not available.
METAR KARB 041353Z 26005KT 10SM CLR 22/14 A2993 RMK AO2 SLP132 T02170144

More Conditions Fewer Conditions

10-Day Weather Forecast

×

Almanac

Astronomy

Aug. 04, 2015 Rise Set
Actual Time
Civil Twilight
Nautical Twilight
Astronomical Twilight
Moon
Length of Visible Light
Length of Day
Tomorrow will be .
, % of the Moon is Illuminated

Today's Extremes

State Highs State Lows

Community

WunderPhotos

Upload Photos

1,843,921 photos uploaded!

WunderBlogs® & News

Nearby

Air Quality

  Air Quality AQ Index Pollutant
Not available.

Snow Depth

Station Depth Elevation

Earthquake Activity

City Distance Mag. Time & Date
Minimum magnitude displayed is 2.5.

Coastal Water Temperatures

Place Temperature

Stations

Nearby Weather Stations

Station Location Temp. Windchill Dew Point Humidity Wind Precip. Elev Updated Type